createdAt,value
2024-02-08T00:02:50.245Z,14.93
2024-02-08T00:07:53.303Z,14.20
2024-02-08T00:12:56.068Z,15.13
2024-02-08T00:17:59.945Z,18.20
2024-02-08T00:23:03.034Z,14.85
2024-02-08T00:28:13.289Z,20.15
2024-02-08T00:33:16.458Z,17.95
2024-02-08T00:38:19.683Z,14.65
2024-02-08T00:43:22.907Z,14.82
2024-02-08T00:48:26.372Z,15.20
2024-02-08T00:53:29.016Z,22.02
2024-02-08T00:58:32.630Z,16.70
2024-02-08T01:03:37.717Z,16.77
2024-02-08T01:08:40.446Z,18.38
2024-02-08T01:13:43.374Z,16.60
2024-02-08T01:18:47.070Z,15.65
2024-02-08T01:23:50.517Z,19.30
2024-02-08T01:28:55.976Z,18.17
2024-02-08T01:33:59.224Z,14.10
2024-02-08T01:39:02.375Z,23.55
2024-02-08T01:44:09.099Z,18.52
2024-02-08T01:49:21.250Z,18.10
2024-02-08T01:54:24.005Z,20.40
2024-02-08T01:59:29.740Z,19.75
2024-02-08T02:04:32.783Z,19.45
2024-02-08T02:09:36.592Z,24.65
2024-02-08T02:14:40.602Z,15.55
2024-02-08T02:19:44.642Z,19.25
2024-02-08T02:24:50.652Z,18.42
2024-02-08T02:29:55.880Z,17.98
2024-02-08T02:34:58.860Z,20.65
2024-02-08T02:40:01.955Z,19.70
2024-02-08T02:45:14.542Z,18.45
2024-02-08T02:50:18.585Z,16.40
2024-02-08T02:55:21.636Z,17.98
2024-02-08T03:00:25.667Z,20.40
2024-02-08T03:05:28.581Z,15.38
2024-02-08T03:10:31.461Z,17.90
2024-02-08T03:15:38.420Z,18.80
2024-02-08T03:20:41.587Z,14.10
2024-02-08T03:25:44.528Z,14.18
2024-02-08T03:30:47.436Z,15.30
2024-02-08T03:35:54.839Z,19.30
2024-02-08T03:40:59.756Z,12.48
2024-02-08T03:46:06.473Z,13.90
2024-02-08T03:51:12.289Z,14.95
2024-02-08T03:56:17.290Z,15.27
2024-02-08T04:01:22.761Z,17.35
2024-02-08T04:06:38.460Z,18.10
2024-02-08T04:12:04.342Z,14.52
2024-02-08T04:17:25.763Z,13.95
2024-02-08T04:22:47.382Z,16.88
2024-02-08T04:28:10.039Z,18.35
2024-02-08T04:33:32.273Z,19.98
2024-02-08T04:38:53.488Z,15.32
2024-02-08T04:44:15.138Z,12.93
2024-02-08T04:49:36.631Z,13.43
2024-02-08T04:54:39.265Z,14.63
2024-02-08T04:59:43.008Z,21.17
2024-02-08T05:04:51.065Z,14.52
2024-02-08T05:09:54.326Z,19.98
2024-02-08T05:14:58.010Z,14.32
2024-02-08T05:20:01.048Z,17.00
2024-02-08T05:25:10.956Z,11.68
2024-02-08T05:30:16.776Z,14.75
2024-02-08T05:35:22.010Z,14.27
2024-02-08T05:40:26.351Z,15.45
2024-02-08T05:45:32.307Z,13.80
2024-02-08T05:50:37.992Z,11.65
2024-02-08T05:55:41.661Z,16.45
2024-02-08T06:00:54.618Z,12.25
2024-02-08T06:06:08.427Z,15.48
2024-02-08T06:11:21.568Z,15.73
2024-02-08T06:16:28.364Z,11.18
2024-02-08T06:21:43.685Z,10.30
2024-02-08T06:26:53.551Z,13.73
2024-02-08T06:32:04.383Z,14.20
2024-02-08T06:37:27.849Z,13.70
2024-02-08T06:42:56.802Z,18.25
2024-02-08T06:48:02.917Z,19.70
2024-02-08T06:53:24.293Z,14.45
2024-02-08T06:58:45.787Z,14.40
2024-02-08T07:04:07.369Z,18.42
2024-02-08T07:09:28.827Z,16.83
2024-02-08T07:14:50.653Z,13.15
2024-02-08T07:20:12.967Z,14.38
2024-02-08T07:25:34.660Z,16.63
2024-02-08T07:30:58.698Z,15.82
2024-02-08T07:36:23.188Z,28.45
2024-02-08T07:41:26.143Z,13.60
2024-02-08T07:46:33.326Z,13.77
2024-02-08T07:51:36.369Z,16.00
2024-02-08T07:56:48.245Z,16.10
2024-02-08T08:01:51.983Z,15.68
2024-02-08T08:07:02.037Z,12.30
2024-02-08T08:12:06.076Z,14.32
2024-02-08T08:17:14.865Z,12.20
2024-02-08T08:22:41.621Z,14.45
2024-02-08T08:28:12.071Z,14.32
2024-02-08T08:33:35.136Z,15.88
2024-02-08T08:38:46.075Z,12.55
2024-02-08T08:43:55.173Z,14.75
2024-02-08T08:48:58.437Z,17.00
2024-02-08T08:54:16.106Z,13.80
2024-02-08T08:59:21.183Z,10.77
2024-02-08T09:04:27.842Z,15.25
2024-02-08T09:09:49.755Z,12.88
2024-02-08T09:14:55.342Z,12.13
2024-02-08T09:20:01.152Z,11.80
2024-02-08T09:25:23.031Z,15.15
2024-02-08T09:30:40.217Z,11.68
2024-02-08T09:35:44.686Z,16.88
2024-02-08T09:40:52.728Z,14.82
2024-02-08T09:46:29.592Z,14.05
2024-02-08T09:51:36.800Z,15.57
2024-02-08T09:56:40.996Z,15.60
2024-02-08T10:01:45.976Z,12.20
2024-02-08T10:06:56.864Z,17.95
2024-02-08T10:12:04.380Z,13.57
2024-02-08T10:17:26.877Z,19.83
2024-02-08T10:27:38.217Z,13.05
2024-02-08T10:32:41.012Z,16.98
2024-02-08T10:38:09.306Z,12.23
2024-02-08T10:43:19.784Z,10.70
2024-02-08T10:48:24.916Z,12.52
2024-02-08T10:53:44.997Z,20.63
2024-02-08T10:59:07.739Z,8.77
2024-02-08T11:04:20.156Z,7.07
2024-02-08T11:09:29.038Z,7.75
2024-02-08T11:14:55.101Z,4.47
2024-02-08T11:19:59.006Z,5.22
2024-02-08T11:25:21.009Z,5.38
2024-02-08T11:30:35.201Z,5.55
2024-02-08T11:35:57.752Z,4.63
2024-02-08T11:41:10.914Z,3.45
2024-02-08T11:46:20.759Z,7.35
2024-02-08T11:51:24.224Z,4.65
2024-02-08T11:56:30.692Z,11.45
2024-02-08T12:01:35.423Z,5.35
2024-02-08T12:06:48.133Z,3.65
2024-02-08T12:11:56.996Z,5.35
2024-02-08T12:17:01.475Z,5.93
2024-02-08T12:22:16.714Z,6.18
2024-02-08T12:27:27.000Z,3.38
2024-02-08T12:32:32.324Z,4.57
2024-02-08T12:37:38.146Z,6.78
2024-02-08T12:42:42.650Z,7.50
2024-02-08T12:47:51.711Z,5.78
2024-02-08T12:52:57.162Z,7.22
2024-02-08T12:58:05.278Z,6.97
2024-02-08T13:03:10.424Z,10.73
2024-02-08T13:08:23.328Z,8.55
2024-02-08T13:13:26.162Z,6.82
2024-02-08T13:18:33.079Z,7.50
2024-02-08T13:23:39.747Z,5.47
2024-02-08T13:28:43.688Z,5.30
2024-02-08T13:33:46.750Z,6.00
2024-02-08T13:38:51.117Z,7.25
2024-02-08T13:43:56.611Z,5.22
2024-02-08T13:49:00.076Z,9.57
2024-02-08T13:54:03.415Z,4.22
2024-02-08T13:59:06.760Z,7.07
2024-02-08T14:04:09.642Z,5.97
2024-02-08T14:09:24.150Z,6.28
2024-02-08T14:14:42.026Z,5.57
2024-02-08T14:19:46.732Z,6.60
2024-02-08T14:24:52.949Z,4.72
2024-02-08T14:35:00.678Z,5.15
2024-02-08T14:40:15.459Z,5.32
2024-02-08T14:45:18.730Z,3.85
2024-02-08T14:50:40.824Z,7.05
2024-02-08T14:55:48.732Z,5.72
2024-02-08T15:01:00.977Z,4.75
2024-02-08T15:06:07.138Z,5.15
2024-02-08T15:11:27.218Z,7.25
2024-02-08T15:16:33.317Z,8.60
2024-02-08T15:21:37.659Z,4.22
2024-02-08T15:27:05.709Z,6.68
2024-02-08T15:32:32.331Z,4.38
2024-02-08T15:37:45.865Z,4.45
2024-02-08T15:42:50.683Z,6.78
2024-02-08T15:47:59.994Z,4.18
2024-02-08T15:53:10.889Z,4.40
2024-02-08T15:58:27.778Z,3.60
2024-02-08T16:03:39.130Z,4.90
2024-02-08T16:08:48.245Z,4.90
2024-02-08T16:13:58.813Z,4.22
2024-02-08T16:19:24.906Z,5.90
2024-02-08T16:24:32.250Z,6.15
2024-02-08T16:29:36.467Z,2.70
2024-02-08T16:34:52.374Z,2.53
2024-02-08T16:40:09.381Z,2.03
2024-02-08T16:45:35.766Z,2.70
2024-02-08T16:51:17.965Z,1.92
2024-02-08T16:56:24.142Z,2.38
2024-02-08T17:01:31.815Z,1.70
2024-02-08T17:06:55.781Z,4.57
2024-02-08T17:12:06.782Z,3.53
2024-02-08T17:17:27.255Z,3.33
2024-02-08T17:22:42.265Z,3.58
2024-02-08T17:28:04.547Z,3.38
2024-02-08T17:33:13.294Z,2.08
2024-02-08T17:38:21.513Z,5.78
2024-02-08T17:43:25.524Z,3.88
2024-02-08T17:48:34.113Z,2.85
2024-02-08T17:53:46.339Z,3.88
2024-02-08T17:58:56.589Z,3.55
2024-02-08T18:04:03.788Z,3.08
2024-02-08T18:09:07.590Z,4.80
2024-02-08T18:14:17.050Z,3.28
2024-02-08T18:19:28.617Z,3.97
2024-02-08T18:24:34.075Z,7.30
2024-02-08T18:29:39.433Z,3.30
2024-02-08T18:34:42.274Z,3.78
2024-02-08T18:39:45.280Z,3.83
2024-02-08T18:44:52.333Z,3.38
2024-02-08T18:49:59.087Z,6.15
2024-02-08T18:55:11.118Z,2.67
2024-02-08T19:00:15.378Z,5.15
2024-02-08T19:05:25.550Z,3.70
2024-02-08T19:10:30.664Z,4.93
2024-02-08T19:15:39.085Z,6.75
2024-02-08T19:20:45.650Z,4.88
2024-02-08T19:25:56.406Z,8.02
2024-02-08T19:31:01.370Z,7.40
2024-02-08T19:36:12.116Z,6.25
2024-02-08T19:41:16.839Z,6.57
2024-02-08T19:46:20.776Z,5.72
2024-02-08T19:51:26.730Z,6.88
2024-02-08T19:56:35.185Z,5.95
2024-02-08T20:01:38.421Z,4.97
2024-02-08T20:06:48.984Z,6.20
2024-02-08T20:11:59.846Z,6.95
2024-02-08T20:17:06.022Z,7.10
2024-02-08T20:22:13.482Z,6.07
2024-02-08T20:27:19.731Z,5.97
2024-02-08T20:32:30.132Z,3.60
2024-02-08T20:37:33.919Z,6.85
2024-02-08T20:42:37.310Z,6.85
2024-02-08T20:47:43.251Z,4.28
2024-02-08T20:52:49.279Z,3.97
2024-02-08T20:57:54.283Z,4.45
2024-02-08T21:03:03.455Z,4.70
2024-02-08T21:08:09.199Z,3.05
2024-02-08T21:13:18.863Z,4.45
2024-02-08T21:18:23.368Z,4.65
2024-02-08T21:23:26.647Z,4.88
2024-02-08T21:28:31.257Z,3.60
2024-02-08T21:33:34.806Z,5.50
2024-02-08T21:38:37.764Z,7.25
2024-02-08T21:43:41.198Z,5.10
2024-02-08T21:48:44.989Z,6.35
2024-02-08T21:53:49.815Z,4.07
2024-02-08T21:58:52.679Z,3.70
2024-02-08T22:03:56.021Z,5.53
2024-02-08T22:08:59.552Z,3.83
2024-02-08T22:14:02.397Z,4.78
2024-02-08T22:19:05.355Z,4.97
2024-02-08T22:24:09.932Z,3.65
2024-02-08T22:29:14.875Z,5.72
2024-02-08T22:34:19.566Z,5.45
2024-02-08T22:39:24.577Z,5.53
2024-02-08T22:44:28.919Z,5.00
2024-02-08T22:49:31.890Z,5.15
2024-02-08T22:54:35.110Z,5.05
2024-02-08T22:59:38.103Z,4.97
2024-02-08T23:04:43.311Z,4.28
2024-02-08T23:09:46.286Z,3.38
2024-02-08T23:14:48.947Z,3.95
2024-02-08T23:19:54.271Z,3.83
2024-02-08T23:24:59.755Z,4.38
2024-02-08T23:30:03.124Z,4.50
2024-02-08T23:35:13.836Z,4.15
2024-02-08T23:40:17.095Z,5.43
2024-02-08T23:45:20.821Z,7.28
2024-02-08T23:50:28.137Z,5.15
2024-02-08T23:55:31.577Z,5.25
